createdAt,value
2023-05-05T00:01:13.473Z,1.26
2023-05-05T00:03:42.742Z,1.23
2023-05-05T00:06:10.909Z,1.20
2023-05-05T00:08:38.893Z,1.19
2023-05-05T00:11:07.246Z,1.15
2023-05-05T00:13:36.962Z,1.07
2023-05-05T00:16:06.037Z,1.06
2023-05-05T00:18:34.748Z,1.04
2023-05-05T00:21:02.752Z,1.09
2023-05-05T00:23:30.899Z,1.11
2023-05-05T00:25:58.988Z,1.13
2023-05-05T00:28:27.576Z,1.16
2023-05-05T00:30:57.005Z,1.14
2023-05-05T00:33:26.006Z,1.12
2023-05-05T00:35:54.067Z,1.09
2023-05-05T00:38:22.139Z,1.09
2023-05-05T00:40:50.174Z,1.12
2023-05-05T00:43:18.109Z,1.10
2023-05-05T00:45:48.036Z,1.10
2023-05-05T00:48:18.902Z,1.12
2023-05-05T00:50:47.092Z,1.13
2023-05-05T00:53:15.297Z,1.15
2023-05-05T00:55:43.502Z,1.11
2023-05-05T00:58:13.390Z,1.13
2023-05-05T01:00:41.826Z,1.09
2023-05-05T01:03:10.252Z,1.05
2023-05-05T01:05:47.681Z,1.07
2023-05-05T01:08:27.215Z,1.01
2023-05-05T01:11:02.069Z,1.02
2023-05-05T01:13:37.084Z,0.94
2023-05-05T01:16:12.826Z,0.93
2023-05-05T01:18:49.916Z,1.01
2023-05-05T01:21:27.140Z,1.10
2023-05-05T01:24:17.803Z,1.16
2023-05-05T01:27:01.609Z,1.25
2023-05-05T01:29:42.507Z,1.33
2023-05-05T01:32:15.345Z,1.43
2023-05-05T01:34:50.667Z,1.53
2023-05-05T01:37:23.216Z,1.55
2023-05-05T01:39:55.721Z,1.62
2023-05-05T01:42:26.204Z,1.62
2023-05-05T01:44:55.387Z,1.66
2023-05-05T01:47:26.572Z,1.66
2023-05-05T01:49:55.269Z,1.65
2023-05-05T01:52:24.980Z,1.63
2023-05-05T01:54:54.313Z,1.59
2023-05-05T01:57:26.338Z,1.58
2023-05-05T01:59:56.838Z,1.51
2023-05-05T02:02:28.637Z,1.53
2023-05-05T02:04:58.603Z,1.65
2023-05-05T02:07:28.313Z,1.73
2023-05-05T02:09:57.721Z,1.83
2023-05-05T02:12:26.351Z,1.89
2023-05-05T02:14:55.204Z,1.95
2023-05-05T02:17:24.319Z,2.07
2023-05-05T02:19:55.584Z,2.09
2023-05-05T02:22:23.683Z,2.16
2023-05-05T02:24:51.918Z,2.20
2023-05-05T02:27:23.212Z,2.30
2023-05-05T02:29:55.338Z,2.35
2023-05-05T02:32:29.240Z,2.43
2023-05-05T02:35:04.224Z,2.53
2023-05-05T02:37:34.913Z,2.56
2023-05-05T02:40:06.507Z,2.60
2023-05-05T02:42:39.395Z,2.56
2023-05-05T02:45:13.553Z,2.52
2023-05-05T02:47:45.686Z,2.54
2023-05-05T02:50:16.387Z,2.50
2023-05-05T02:52:53.234Z,2.51
2023-05-05T02:55:23.713Z,2.50
2023-05-05T02:58:06.713Z,2.48
2023-05-05T03:00:48.479Z,2.46
2023-05-05T03:03:23.381Z,2.40
2023-05-05T03:06:01.645Z,2.52
2023-05-05T03:08:38.057Z,2.57
2023-05-05T03:11:15.863Z,2.57
2023-05-05T03:13:47.856Z,2.56
2023-05-05T03:16:20.049Z,2.58
2023-05-05T03:18:52.024Z,2.56
2023-05-05T03:21:22.559Z,2.59
2023-05-05T03:23:51.089Z,2.57
2023-05-05T03:26:21.991Z,2.63
2023-05-05T03:28:50.190Z,2.65
2023-05-05T03:31:31.480Z,2.72
2023-05-05T03:34:01.954Z,2.73
2023-05-05T03:36:36.911Z,2.75
2023-05-05T03:39:05.297Z,2.89
2023-05-05T03:41:35.329Z,3.02
2023-05-05T03:44:04.585Z,3.13
2023-05-05T03:46:33.027Z,3.30
2023-05-05T03:49:00.987Z,3.83
2023-05-05T03:51:29.584Z,3.89
2023-05-05T03:54:00.330Z,3.80
2023-05-05T03:56:28.584Z,3.73
2023-05-05T03:58:56.590Z,3.70
2023-05-05T04:01:25.336Z,3.53
2023-05-05T04:03:53.751Z,3.61
2023-05-05T04:06:21.842Z,3.65
2023-05-05T04:08:50.009Z,3.76
2023-05-05T04:11:19.467Z,3.72
2023-05-05T04:13:48.566Z,3.50
2023-05-05T04:16:17.027Z,3.59
2023-05-05T04:18:45.365Z,3.64
2023-05-05T04:21:13.387Z,3.67
2023-05-05T04:23:41.904Z,3.69
2023-05-05T04:26:09.883Z,3.87
2023-05-05T04:28:39.415Z,4.09
2023-05-05T04:31:08.098Z,4.31
2023-05-05T04:33:39.394Z,4.51
2023-05-05T04:36:08.199Z,4.67
2023-05-05T04:38:36.769Z,5.98
2023-05-05T04:41:07.274Z,7.43
2023-05-05T04:43:36.584Z,7.53
2023-05-05T04:46:06.427Z,9.38
2023-05-05T04:48:37.983Z,11.24
2023-05-05T04:51:07.086Z,13.01
2023-05-05T04:53:36.073Z,13.76
2023-05-05T04:56:04.201Z,14.12
2023-05-05T04:58:32.284Z,13.42
2023-05-05T05:01:00.489Z,12.94
2023-05-05T05:03:31.991Z,11.13
2023-05-05T05:06:00.336Z,10.59
2023-05-05T05:08:28.334Z,9.63
2023-05-05T05:10:57.176Z,8.91
2023-05-05T05:13:25.676Z,8.18
2023-05-05T05:15:53.821Z,7.37
2023-05-05T05:18:21.887Z,6.81
2023-05-05T05:20:52.730Z,6.53
2023-05-05T05:23:21.141Z,5.93
2023-05-05T05:25:49.308Z,5.39
2023-05-05T05:28:19.709Z,5.15
2023-05-05T05:30:53.177Z,5.04
2023-05-05T05:33:21.480Z,4.89
2023-05-05T05:35:50.367Z,4.83
2023-05-05T05:38:22.243Z,4.81
2023-05-05T05:40:54.525Z,4.75
2023-05-05T05:43:23.054Z,4.46
2023-05-05T05:45:52.030Z,4.31
2023-05-05T05:48:22.202Z,4.24
2023-05-05T05:50:50.512Z,4.25
2023-05-05T05:53:19.013Z,4.28
2023-05-05T05:55:48.631Z,4.16
2023-05-05T05:58:19.578Z,4.28
2023-05-05T06:00:49.240Z,4.41
2023-05-05T06:03:18.353Z,4.47
2023-05-05T06:05:47.157Z,4.40
2023-05-05T06:08:16.311Z,4.07
2023-05-05T06:10:50.432Z,4.12
2023-05-05T06:13:21.476Z,4.17
2023-05-05T06:15:52.046Z,4.37
2023-05-05T06:18:21.204Z,4.55
2023-05-05T06:20:50.826Z,4.82
2023-05-05T06:23:20.035Z,5.08
2023-05-05T06:25:55.695Z,5.48
2023-05-05T06:28:23.802Z,5.89
2023-05-05T06:30:51.892Z,6.43
2023-05-05T06:33:20.205Z,7.03
2023-05-05T06:35:49.572Z,7.76
2023-05-05T06:38:17.671Z,7.96
2023-05-05T06:40:45.679Z,8.15
2023-05-05T06:43:15.238Z,8.31
2023-05-05T06:45:48.824Z,8.95
2023-05-05T06:48:16.935Z,9.35
2023-05-05T06:50:44.953Z,9.32
2023-05-05T06:53:12.974Z,9.57
2023-05-05T06:55:44.016Z,10.16
2023-05-05T06:58:12.248Z,11.04
2023-05-05T07:00:42.222Z,12.31
2023-05-05T07:03:10.441Z,12.89
2023-05-05T07:05:38.595Z,13.64
2023-05-05T07:08:09.097Z,13.72
2023-05-05T07:10:37.171Z,15.20
2023-05-05T07:13:05.357Z,16.35
2023-05-05T07:15:33.558Z,17.39
2023-05-05T07:18:03.021Z,18.18
2023-05-05T07:20:31.081Z,18.51
2023-05-05T07:22:59.147Z,18.79
2023-05-05T07:25:27.143Z,19.39
2023-05-05T07:27:55.586Z,20.24
2023-05-05T07:30:25.001Z,20.24
2023-05-05T07:32:55.022Z,20.24
2023-05-05T07:35:24.816Z,19.99
2023-05-05T07:37:53.057Z,20.66
2023-05-05T07:40:21.011Z,20.51
2023-05-05T07:42:49.209Z,19.78
2023-05-05T07:45:17.312Z,17.81
2023-05-05T07:47:45.407Z,16.99
2023-05-05T07:50:13.604Z,16.16
2023-05-05T07:52:49.981Z,15.05
2023-05-05T07:55:24.414Z,13.30
2023-05-05T07:57:52.434Z,13.18
2023-05-05T08:00:21.720Z,13.22
2023-05-05T08:02:50.047Z,12.99
2023-05-05T08:05:18.381Z,13.46
2023-05-05T08:07:47.916Z,13.93
2023-05-05T08:10:15.950Z,14.48
2023-05-05T08:12:44.031Z,14.87
2023-05-05T08:15:12.607Z,14.77
2023-05-05T08:17:48.120Z,14.05
2023-05-05T08:20:16.664Z,13.43
2023-05-05T08:22:45.118Z,11.70
2023-05-05T08:25:15.284Z,9.82
2023-05-05T08:27:44.337Z,9.47
2023-05-05T08:30:13.278Z,9.44
2023-05-05T08:32:41.449Z,9.44
2023-05-05T08:35:10.541Z,9.17
2023-05-05T08:37:39.018Z,8.80
2023-05-05T08:40:08.544Z,8.81
2023-05-05T08:42:39.507Z,8.73
2023-05-05T08:45:10.934Z,8.86
2023-05-05T08:47:40.251Z,8.95
2023-05-05T08:50:11.269Z,9.09
2023-05-05T08:52:43.952Z,9.12
2023-05-05T08:55:16.954Z,9.40
2023-05-05T08:57:51.872Z,9.68
2023-05-05T09:00:21.247Z,9.61
2023-05-05T09:02:49.791Z,9.61
2023-05-05T09:05:18.628Z,9.56
2023-05-05T09:07:47.506Z,9.90
2023-05-05T09:10:15.937Z,9.94
2023-05-05T09:12:44.460Z,10.05
2023-05-05T09:15:15.640Z,10.21
2023-05-05T09:17:44.146Z,10.12
2023-05-05T09:20:13.541Z,10.22
2023-05-05T09:22:43.000Z,10.32
2023-05-05T09:25:12.528Z,10.24
2023-05-05T09:27:42.220Z,10.18
2023-05-05T09:30:12.397Z,9.05
2023-05-05T09:32:50.133Z,8.49
2023-05-05T09:35:19.779Z,8.45
2023-05-05T09:37:48.379Z,8.01
2023-05-05T09:40:18.299Z,7.67
2023-05-05T09:42:48.417Z,7.71
2023-05-05T09:45:28.060Z,8.12
2023-05-05T09:48:00.286Z,7.86
2023-05-05T09:50:30.864Z,7.28
2023-05-05T09:53:00.970Z,7.08
2023-05-05T09:55:31.153Z,6.99
2023-05-05T09:58:17.810Z,6.88
2023-05-05T10:00:46.609Z,6.81
2023-05-05T10:03:16.140Z,6.64
2023-05-05T10:05:52.020Z,6.79
2023-05-05T10:08:21.959Z,6.97
2023-05-05T10:10:54.300Z,7.10
2023-05-05T10:13:24.203Z,7.04
2023-05-05T10:15:55.354Z,7.09
2023-05-05T10:18:27.071Z,7.31
2023-05-05T10:20:59.144Z,7.23
2023-05-05T10:23:35.956Z,6.74
2023-05-05T10:26:06.932Z,6.81
2023-05-05T10:28:38.389Z,7.04
2023-05-05T10:31:24.182Z,6.96
2023-05-05T10:34:01.557Z,6.88
2023-05-05T10:36:31.795Z,6.71
2023-05-05T10:39:02.373Z,6.80
2023-05-05T10:41:31.895Z,6.63
2023-05-05T10:44:02.874Z,6.21
2023-05-05T10:46:32.953Z,6.52
2023-05-05T10:49:13.195Z,6.72
2023-05-05T10:51:48.306Z,6.53
2023-05-05T10:54:24.305Z,6.51
2023-05-05T10:56:52.997Z,6.30
2023-05-05T10:59:43.919Z,6.59
2023-05-05T11:02:26.771Z,6.61
2023-05-05T11:05:17.677Z,6.47
2023-05-05T11:07:47.175Z,6.63
2023-05-05T11:10:16.560Z,6.31
2023-05-05T11:13:18.981Z,5.84
2023-05-05T11:15:47.315Z,5.87
2023-05-05T11:18:37.625Z,6.21
2023-05-05T11:21:16.658Z,6.28
2023-05-05T11:23:47.179Z,6.30
2023-05-05T11:26:17.608Z,6.41
2023-05-05T11:29:00.201Z,6.58
2023-05-05T11:31:28.957Z,6.62
2023-05-05T11:34:25.559Z,6.76
2023-05-05T11:36:58.629Z,6.97
2023-05-05T11:39:44.292Z,7.11
2023-05-05T11:42:26.568Z,7.31
2023-05-05T11:44:55.445Z,7.44
2023-05-05T11:47:31.671Z,7.61
2023-05-05T11:50:00.406Z,7.77
2023-05-05T11:52:29.795Z,7.89
2023-05-05T11:55:02.473Z,8.00
2023-05-05T11:57:31.944Z,8.08
2023-05-05T12:00:01.810Z,8.22
2023-05-05T12:02:33.003Z,8.43
2023-05-05T12:05:01.875Z,8.59
2023-05-05T12:07:34.207Z,8.69
2023-05-05T12:10:02.563Z,8.73
2023-05-05T12:12:36.314Z,8.57
2023-05-05T12:15:06.533Z,8.46
2023-05-05T12:17:40.723Z,8.33
2023-05-05T12:20:11.469Z,8.23
2023-05-05T12:22:41.444Z,8.08
2023-05-05T12:25:10.378Z,7.66
2023-05-05T12:27:38.855Z,7.45
2023-05-05T12:30:16.126Z,7.24
2023-05-05T12:32:46.427Z,7.22
2023-05-05T12:35:16.082Z,7.19
2023-05-05T12:37:45.848Z,6.77
2023-05-05T12:40:48.481Z,6.54
2023-05-05T12:43:30.395Z,6.59
2023-05-05T12:46:04.323Z,6.48
2023-05-05T12:48:32.830Z,6.44
2023-05-05T12:51:18.215Z,6.29
2023-05-05T12:53:48.844Z,6.39
2023-05-05T12:56:37.548Z,6.59
2023-05-05T12:59:07.795Z,6.64
2023-05-05T13:01:36.573Z,6.85
2023-05-05T13:04:10.783Z,7.09
2023-05-05T13:06:39.981Z,7.28
2023-05-05T13:09:11.013Z,7.48
2023-05-05T13:11:39.824Z,7.43
2023-05-05T13:14:08.314Z,7.55
2023-05-05T13:16:36.466Z,7.50
2023-05-05T13:19:04.696Z,7.55
2023-05-05T13:21:32.922Z,7.66
2023-05-05T13:24:12.480Z,7.74
2023-05-05T13:26:50.698Z,7.75
2023-05-05T13:29:19.692Z,7.72
2023-05-05T13:31:47.827Z,7.76
2023-05-05T13:34:16.004Z,7.85
2023-05-05T13:36:43.973Z,7.87
2023-05-05T13:39:12.635Z,7.84
2023-05-05T13:41:40.951Z,7.81
2023-05-05T13:44:10.495Z,7.75
2023-05-05T13:46:38.944Z,7.60
2023-05-05T13:49:07.029Z,7.41
2023-05-05T13:51:36.415Z,7.25
2023-05-05T13:54:05.020Z,7.15
2023-05-05T13:56:33.589Z,7.08
2023-05-05T13:59:02.473Z,7.13
2023-05-05T14:01:32.771Z,7.10
2023-05-05T14:04:03.543Z,7.13
2023-05-05T14:06:33.667Z,7.21
2023-05-05T14:09:01.990Z,7.25
2023-05-05T14:11:31.566Z,7.24
2023-05-05T14:13:59.573Z,7.25
2023-05-05T14:16:27.669Z,7.26
2023-05-05T14:18:57.048Z,7.27
2023-05-05T14:21:25.219Z,7.15
2023-05-05T14:23:53.257Z,7.08
2023-05-05T14:26:21.460Z,6.96
2023-05-05T14:28:50.374Z,6.95
2023-05-05T14:31:18.580Z,6.88
2023-05-05T14:33:46.608Z,6.98
2023-05-05T14:36:16.138Z,7.00
2023-05-05T14:38:44.453Z,7.15
2023-05-05T14:41:12.518Z,7.26
2023-05-05T14:43:41.385Z,7.34
2023-05-05T14:46:09.423Z,7.42
2023-05-05T14:48:38.094Z,7.49
2023-05-05T14:51:06.708Z,7.55
2023-05-05T14:53:36.860Z,7.53
2023-05-05T14:56:04.943Z,7.50
2023-05-05T14:58:33.101Z,7.45
2023-05-05T15:01:01.525Z,7.44
2023-05-05T15:03:29.763Z,7.38
2023-05-05T15:05:57.944Z,7.38
2023-05-05T15:08:25.982Z,7.39
2023-05-05T15:10:55.562Z,7.38
2023-05-05T15:13:23.685Z,7.43
2023-05-05T15:15:51.799Z,7.40
2023-05-05T15:18:20.114Z,7.41
2023-05-05T15:20:48.103Z,7.41
2023-05-05T15:23:16.198Z,7.38
2023-05-05T15:25:44.331Z,7.29
2023-05-05T15:28:13.765Z,7.22
2023-05-05T15:30:41.901Z,7.04
2023-05-05T15:33:10.035Z,7.02
2023-05-05T15:35:38.386Z,6.97
2023-05-05T15:38:07.692Z,6.81
2023-05-05T15:40:35.780Z,6.67
2023-05-05T15:43:03.831Z,6.54
2023-05-05T15:45:34.532Z,6.56
2023-05-05T15:48:02.652Z,6.62
2023-05-05T15:50:31.034Z,6.68
2023-05-05T15:52:59.438Z,6.58
2023-05-05T15:55:28.154Z,6.59
2023-05-05T15:57:56.156Z,6.63
2023-05-05T16:00:24.249Z,6.65
2023-05-05T16:02:53.658Z,6.65
2023-05-05T16:05:23.088Z,6.64
2023-05-05T16:07:52.584Z,6.64
2023-05-05T16:10:20.747Z,6.53
2023-05-05T16:12:48.812Z,6.53
2023-05-05T16:15:16.956Z,6.54
2023-05-05T16:17:45.332Z,6.52
2023-05-05T16:20:15.033Z,6.38
2023-05-05T16:22:43.603Z,6.39
2023-05-05T16:25:11.827Z,6.39
2023-05-05T16:27:40.115Z,6.37
2023-05-05T16:30:10.266Z,6.42
2023-05-05T16:32:39.585Z,6.51
2023-05-05T16:35:09.285Z,6.57
2023-05-05T16:37:38.945Z,6.51
2023-05-05T16:40:08.335Z,6.43
2023-05-05T16:42:36.354Z,6.28
2023-05-05T16:45:04.619Z,6.23
2023-05-05T16:47:32.728Z,6.22
2023-05-05T16:50:00.788Z,6.21
2023-05-05T16:52:29.333Z,6.18
2023-05-05T16:54:58.943Z,6.20
2023-05-05T16:57:27.095Z,6.22
2023-05-05T16:59:56.864Z,6.16
2023-05-05T17:02:25.085Z,6.08
2023-05-05T17:04:53.201Z,5.98
2023-05-05T17:07:22.415Z,5.91
2023-05-05T17:09:51.107Z,5.84
2023-05-05T17:12:20.561Z,5.59
2023-05-05T17:14:48.702Z,5.57
2023-05-05T17:17:16.948Z,5.52
2023-05-05T17:19:45.465Z,5.50
2023-05-05T17:22:13.488Z,5.43
2023-05-05T17:24:41.553Z,5.43
2023-05-05T17:27:09.689Z,5.42
2023-05-05T17:29:40.921Z,5.39
2023-05-05T17:32:09.386Z,5.35
2023-05-05T17:34:37.589Z,5.31
2023-05-05T17:37:05.559Z,5.35
2023-05-05T17:39:33.910Z,5.37
2023-05-05T17:42:02.116Z,5.34
2023-05-05T17:44:31.465Z,5.29
2023-05-05T17:47:02.807Z,5.21
2023-05-05T17:49:30.989Z,5.20
2023-05-05T17:51:58.989Z,5.16
2023-05-05T17:54:27.310Z,5.09
2023-05-05T17:56:55.452Z,5.03
2023-05-05T17:59:23.534Z,5.02
2023-05-05T18:01:51.668Z,5.02
2023-05-05T18:04:21.067Z,5.01
2023-05-05T18:06:49.137Z,4.96
2023-05-05T18:09:17.671Z,4.95
2023-05-05T18:11:45.919Z,4.83
2023-05-05T18:14:13.914Z,4.78
2023-05-05T18:16:43.842Z,4.76
2023-05-05T18:19:11.988Z,4.72
2023-05-05T18:21:41.737Z,4.73
2023-05-05T18:24:19.473Z,4.76
2023-05-05T18:26:50.017Z,4.70
2023-05-05T18:29:18.282Z,4.69
2023-05-05T18:31:48.426Z,4.72
2023-05-05T18:34:17.714Z,4.74
2023-05-05T18:36:47.815Z,4.76
2023-05-05T18:39:16.462Z,4.77
2023-05-05T18:41:44.523Z,4.77
2023-05-05T18:44:12.674Z,4.78
2023-05-05T18:46:43.089Z,4.84
2023-05-05T18:49:11.262Z,4.84
2023-05-05T18:51:39.298Z,4.86
2023-05-05T18:54:08.813Z,4.81
2023-05-05T18:56:36.924Z,4.77
2023-05-05T18:59:05.763Z,4.79
2023-05-05T19:01:33.849Z,4.77
2023-05-05T19:04:01.948Z,4.75
2023-05-05T19:06:30.010Z,4.70
2023-05-05T19:08:58.159Z,4.71
2023-05-05T19:11:27.644Z,4.72
2023-05-05T19:13:55.590Z,4.71
2023-05-05T19:16:23.798Z,4.69
2023-05-05T19:18:54.291Z,4.67
2023-05-05T19:21:22.417Z,4.68
2023-05-05T19:23:50.603Z,4.68
2023-05-05T19:26:18.662Z,4.63
2023-05-05T19:28:48.149Z,4.55
2023-05-05T19:31:16.433Z,4.58
2023-05-05T19:33:45.625Z,4.61
2023-05-05T19:36:14.035Z,4.59
2023-05-05T19:38:44.574Z,4.57
2023-05-05T19:41:13.837Z,4.52
2023-05-05T19:43:42.079Z,4.49
2023-05-05T19:46:11.482Z,4.45
2023-05-05T19:48:40.415Z,4.42
2023-05-05T19:51:08.394Z,4.39
2023-05-05T19:53:36.473Z,4.36
2023-05-05T19:56:04.930Z,4.30
2023-05-05T19:58:52.942Z,4.26
2023-05-05T20:01:22.830Z,4.26
2023-05-05T20:03:51.079Z,4.27
2023-05-05T20:06:19.271Z,4.23
2023-05-05T20:08:47.598Z,4.22
2023-05-05T20:11:17.012Z,4.24
2023-05-05T20:13:45.347Z,4.22
2023-05-05T20:16:14.816Z,4.24
2023-05-05T20:18:44.373Z,4.20
2023-05-05T20:21:12.676Z,4.20
2023-05-05T20:23:42.777Z,4.24
2023-05-05T20:26:11.365Z,4.19
2023-05-05T20:28:40.407Z,4.12
2023-05-05T20:31:10.896Z,4.15
2023-05-05T20:33:38.936Z,4.11
2023-05-05T20:36:08.613Z,4.07
2023-05-05T20:38:37.444Z,4.05
2023-05-05T20:41:06.191Z,3.98
2023-05-05T20:43:35.277Z,3.87
2023-05-05T20:46:03.818Z,3.91
2023-05-05T20:48:32.390Z,3.92
2023-05-05T20:51:03.850Z,3.91
2023-05-05T20:53:33.630Z,3.85
2023-05-05T20:56:02.368Z,3.85
2023-05-05T20:58:31.018Z,3.83
2023-05-05T21:00:59.300Z,3.80
2023-05-05T21:03:27.455Z,3.76
2023-05-05T21:05:55.646Z,3.74
2023-05-05T21:08:23.719Z,3.75
2023-05-05T21:10:53.249Z,3.65
2023-05-05T21:13:21.536Z,3.65
2023-05-05T21:15:51.282Z,3.67
2023-05-05T21:18:19.236Z,3.64
2023-05-05T21:20:47.200Z,3.60
2023-05-05T21:23:15.310Z,3.56
2023-05-05T21:25:43.315Z,3.55
2023-05-05T21:28:12.736Z,3.59
2023-05-05T21:30:40.828Z,3.62
2023-05-05T21:33:08.815Z,3.62
2023-05-05T21:35:36.974Z,3.56
2023-05-05T21:38:05.226Z,3.56
2023-05-05T21:40:33.208Z,3.61
2023-05-05T21:43:01.166Z,3.64
2023-05-05T21:45:30.526Z,3.64
2023-05-05T21:47:58.608Z,3.65
2023-05-05T21:50:28.847Z,3.64
2023-05-05T21:52:57.696Z,3.62
2023-05-05T21:55:25.705Z,3.60
2023-05-05T21:57:53.687Z,3.60
2023-05-05T22:00:21.801Z,3.56
2023-05-05T22:02:51.293Z,3.50
2023-05-05T22:05:20.537Z,3.47
2023-05-05T22:07:48.550Z,3.42
2023-05-05T22:10:16.613Z,3.38
2023-05-05T22:12:44.653Z,3.36
2023-05-05T22:15:12.852Z,3.34
2023-05-05T22:17:40.933Z,3.34
2023-05-05T22:20:11.719Z,3.32
2023-05-05T22:22:39.846Z,3.28
2023-05-05T22:25:08.586Z,3.27
2023-05-05T22:27:36.812Z,3.24
2023-05-05T22:30:05.608Z,3.22
2023-05-05T22:32:33.776Z,3.23
2023-05-05T22:35:02.569Z,3.23
2023-05-05T22:37:32.618Z,3.20
2023-05-05T22:40:00.796Z,3.18
2023-05-05T22:42:29.666Z,3.14
2023-05-05T22:44:57.771Z,3.13
2023-05-05T22:47:25.944Z,3.11
2023-05-05T22:49:54.336Z,3.11
2023-05-05T22:52:22.406Z,3.14
2023-05-05T22:54:51.853Z,3.17
2023-05-05T22:57:19.914Z,3.20
2023-05-05T22:59:47.968Z,3.19
2023-05-05T23:02:16.058Z,3.23
2023-05-05T23:04:44.612Z,3.25
2023-05-05T23:07:13.379Z,3.27
2023-05-05T23:09:41.766Z,3.27
2023-05-05T23:12:11.100Z,3.23
2023-05-05T23:14:39.638Z,3.24
2023-05-05T23:17:08.406Z,3.27
2023-05-05T23:19:36.825Z,3.22
2023-05-05T23:22:05.552Z,3.22
2023-05-05T23:24:33.682Z,3.15
2023-05-05T23:27:03.054Z,3.19
2023-05-05T23:29:32.682Z,3.12
2023-05-05T23:32:00.675Z,3.13
2023-05-05T23:34:28.701Z,3.18
2023-05-05T23:36:57.216Z,3.17
2023-05-05T23:39:25.463Z,3.20
2023-05-05T23:41:53.427Z,3.20
2023-05-05T23:44:22.408Z,3.22
2023-05-05T23:46:51.736Z,3.23
2023-05-05T23:49:19.685Z,3.21
2023-05-05T23:51:47.711Z,3.22
2023-05-05T23:54:15.698Z,3.28
2023-05-05T23:56:43.743Z,3.27
2023-05-05T23:59:11.794Z,3.30
